Camano Island, WA

3:34 AM PST on March 06, 2015 (GMT -0800)
Camano Country Club | Change Station
CLOSE
Current Station
Personal Weather Station
Location: Camano Island, WA
Elevation: 190 ft
Nearby Weather Stations

Elev 190 ft 48.17 °N, 122.48 °W | Updated 17 minutes ago

Clear
Clear
37.2 °F
Feels Like 37 °F
N
2.2
Wind Variable Wind from WSW
Gusts 2.7 mph

Today
High -- | Low -- °F
--% Chance of Precip.
Yesterday
High -- | Low -- °F
Precip. -- in
6:41 AM 6:01 PM
Full, 100% visible
Pressure 30.42 in
Visibility 10.0 miles
Clouds Few 16000 ft
Scattered Clouds 20000 ft
Windchill 37 °F
Dew Point 33 °F
Humidity 84%
Rainfall in
Snow Depth Not available.
UV 0 out of 12
Pollen 6.60 out of 12
Air Quality Not available.
Flu Activity Not available.
METAR KNUW 061056Z 00000KT 10SM FEW160 SCT200 04/02 A3041 RMK AO2 SLP301 T00390017 VISNO E $

More Conditions Fewer Conditions

Pressure 30.42 in
Visibility 10.0 miles
Clouds Few 16000 ft
Scattered Clouds 20000 ft
Windchill 37 °F
Dew Point 33 °F
Humidity 84%
Rainfall in
Snow Depth Not available.
UV 0 out of 12
Pollen 6.60 out of 12
Air Quality Not available.
Flu Activity Not available.
METAR KNUW 061056Z 00000KT 10SM FEW160 SCT200 04/02 A3041 RMK AO2 SLP301 T00390017 VISNO E $

More Conditions Fewer Conditions

10-Day Weather Forecast

Almanac

Astronomy

Mar. 06, 2015 Rise Set
Actual Time
Civil Twilight
Nautical Twilight
Astronomical Twilight
Moon
Length of Visible Light
Length of Day
Tomorrow will be .
, % of the Moon is Illuminated

Today's Extremes

State Highs State Lows

Community

WunderPhotos

Upload Photos

1,803,228 photos uploaded!

WunderBlogs® & News

Nearby

Air Quality

  Air Quality AQ Index Pollutant
Not available.

Snow Depth

Station Depth Elevation

Earthquake Activity

City Distance Mag. Time & Date
Minimum magnitude displayed is 2.5.

Coastal Water Temperatures

Place Temperature

Nearby Weather Stations